Terminal Aerodrome Forecast
Issued by NWS Brownsville, TX

Home | Current Version | Previous Version | Text Only | Print | Product List | Glossary On
Versions: 1 2 3 4 5 6 7 8 9 10 11 12 13 14 15 16 17 18 19 20 21 22 23
000
FTUS44 KBRO 021100 RRA
TAFMFE
TAF
KMFE 021149Z 0212/0312 12007KT P6SM FEW025
     FM021400 13012KT P6SM VCSH SCT025
     FM021800 14015KT P6SM VCTS BKN050CB
      TEMPO 0218/0222 4SM +TSRA BKN025CB
     FM030300 11009KT P6SM VCSH SCT025 BKN150 PROB30 0303/0307
      VRB15G30KT 4SM +TSRA BKN030CB OVC050
     FM030800 11010KT P6SM VCSH BKN035 OVC150=

USA.gov is the U.S. government's official web portal to all federal, state and local government web resources and services.